sensor_id;sensor_type;location;lat;lon;timestamp;pressure;altitude;pressure_sealevel;temperature;humidity
80798;BME280;70202;52.238;10.680;2024-03-17T00:00:07;100933.41;;;6.35;89.26
80798;BME280;70202;52.238;10.680;2024-03-17T00:01:10;100947.88;;;6.34;89.10
80798;BME280;70202;52.238;10.680;2024-03-17T00:02:12;100863.63;;;5.85;89.34
80798;BME280;70202;52.238;10.680;2024-03-17T00:03:12;100885.13;;;5.98;88.77
80798;BME280;70202;52.238;10.680;2024-03-17T00:04:13;100912.91;;;6.14;89.76
80798;BME280;70202;52.238;10.680;2024-03-17T00:05:13;100928.16;;;6.21;89.58
80798;BME280;70202;52.238;10.680;2024-03-17T00:06:14;100948.75;;;6.35;89.00
80798;BME280;70202;52.238;10.680;2024-03-17T00:07:14;100954.19;;;6.33;89.11
80798;BME280;70202;52.238;10.680;2024-03-17T00:08:15;100912.09;;;6.08;89.63
80798;BME280;70202;52.238;10.680;2024-03-17T00:09:15;100848.50;;;5.67;89.29
80798;BME280;70202;52.238;10.680;2024-03-17T00:10:16;100938.09;;;6.19;89.49
80798;BME280;70202;52.238;10.680;2024-03-17T00:11:16;100957.84;;;6.28;89.20
80798;BME280;70202;52.238;10.680;2024-03-17T00:12:17;100957.84;;;6.28;89.42
80798;BME280;70202;52.238;10.680;2024-03-17T00:13:17;100818.94;;;5.50;88.93
80798;BME280;70202;52.238;10.680;2024-03-17T00:14:18;100879.94;;;5.75;89.00
80798;BME280;70202;52.238;10.680;2024-03-17T00:15:18;100918.44;;;6.05;89.48
80798;BME280;70202;52.238;10.680;2024-03-17T00:16:19;100850.41;;;5.57;89.31
80798;BME280;70202;52.238;10.680;2024-03-17T00:17:19;100909.53;;;5.89;89.06
80798;BME280;70202;52.238;10.680;2024-03-17T00:18:21;100859.44;;;5.53;89.55
80798;BME280;70202;52.238;10.680;2024-03-17T00:19:23;100873.75;;;5.66;88.99
80798;BME280;70202;52.238;10.680;2024-03-17T00:20:24;100966.06;;;6.18;88.77
80798;BME280;70202;52.238;10.680;2024-03-17T00:21:25;100960.69;;;6.17;89.57
80798;BME280;70202;52.238;10.680;2024-03-17T00:22:26;100850.44;;;5.51;89.16
80798;BME280;70202;52.238;10.680;2024-03-17T00:23:26;100909.56;;;5.85;88.96
80798;BME280;70202;52.238;10.680;2024-03-17T00:24:28;100785.97;;;5.13;88.62
80798;BME280;70202;52.238;10.680;2024-03-17T00:25:35;100931.16;;;5.95;88.79
80798;BME280;70202;52.238;10.680;2024-03-17T00:26:35;100922.16;;;5.95;89.20
80798;BME280;70202;52.238;10.680;2024-03-17T00:27:36;100878.25;;;5.65;89.19
80798;BME280;70202;52.238;10.680;2024-03-17T00:28:39;100931.13;;;5.97;88.99
80798;BME280;70202;52.238;10.680;2024-03-17T00:29:40;100860.28;;;5.58;89.22
80798;BME280;70202;52.238;10.680;2024-03-17T00:30:40;100962.50;;;6.16;89.14
80798;BME280;70202;52.238;10.680;2024-03-17T00:31:41;100863.88;;;5.59;88.94
80798;BME280;70202;52.238;10.680;2024-03-17T00:32:42;100966.94;;;6.19;89.24
80798;BME280;70202;52.238;10.680;2024-03-17T00:33:42;100873.78;;;5.60;88.80
80798;BME280;70202;52.238;10.680;2024-03-17T00:34:44;100855.81;;;5.57;88.85
80798;BME280;70202;52.238;10.680;2024-03-17T00:35:44;100885.41;;;5.69;88.44
80798;BME280;70202;52.238;10.680;2024-03-17T00:36:45;100751.00;;;5.00;88.41
80798;BME280;70202;52.238;10.680;2024-03-17T00:37:48;100927.47;;;6.01;89.06
80798;BME280;70202;52.238;10.680;2024-03-17T00:38:49;100941.84;;;6.06;88.54
80798;BME280;70202;52.238;10.680;2024-03-17T00:39:52;100918.53;;;5.93;88.46
80798;BME280;70202;52.238;10.680;2024-03-17T00:40:52;100855.84;;;5.51;88.84
80798;BME280;70202;52.238;10.680;2024-03-17T00:41:53;100957.06;;;6.15;89.07
80798;BME280;70202;52.238;10.680;2024-03-17T00:42:53;100961.63;;;6.11;88.62
80798;BME280;70202;52.238;10.680;2024-03-17T00:43:54;100803.06;;;5.16;88.76
80798;BME280;70202;52.238;10.680;2024-03-17T00:44:55;100927.53;;;5.96;88.72
80798;BME280;70202;52.238;10.680;2024-03-17T00:45:56;100933.84;;;5.95;88.52
80798;BME280;70202;52.238;10.680;2024-03-17T00:46:56;100945.47;;;6.02;88.85
80798;BME280;70202;52.238;10.680;2024-03-17T00:47:56;100881.00;;;5.59;88.27
80798;BME280;70202;52.238;10.680;2024-03-17T00:48:58;100852.31;;;5.46;88.69
80798;BME280;70202;52.238;10.680;2024-03-17T00:50:00;100962.56;;;6.07;88.85
80798;BME280;70202;52.238;10.680;2024-03-17T00:51:00;100872.94;;;5.55;88.92
80798;BME280;70202;52.238;10.680;2024-03-17T00:52:01;100872.97;;;5.53;88.80
80798;BME280;70202;52.238;10.680;2024-03-17T00:53:01;100924.00;;;5.84;88.66
80798;BME280;70202;52.238;10.680;2024-03-17T00:54:03;100882.81;;;5.57;89.03
80798;BME280;70202;52.238;10.680;2024-03-17T00:55:04;100858.75;;;5.30;88.77
80798;BME280;70202;52.238;10.680;2024-03-17T00:56:04;100952.78;;;5.94;88.62
80798;BME280;70202;52.238;10.680;2024-03-17T00:57:05;100960.00;;;5.93;88.47
80798;BME280;70202;52.238;10.680;2024-03-17T00:58:05;100924.16;;;5.70;88.75
80798;BME280;70202;52.238;10.680;2024-03-17T00:59:06;100959.16;;;5.84;88.61
80798;BME280;70202;52.238;10.680;2024-03-17T01:00:07;100835.47;;;5.13;88.53
80798;BME280;70202;52.238;10.680;2024-03-17T01:01:10;100961.84;;;5.85;88.67
80798;BME280;70202;52.238;10.680;2024-03-17T01:02:11;100921.53;;;5.61;88.76
80798;BME280;70202;52.238;10.680;2024-03-17T01:03:15;100790.78;;;4.77;88.52
80798;BME280;70202;52.238;10.680;2024-03-17T01:04:16;100930.50;;;5.63;88.98
80798;BME280;70202;52.238;10.680;2024-03-17T01:05:16;100961.06;;;5.74;88.61
80798;BME280;70202;52.238;10.680;2024-03-17T01:06:16;100927.88;;;5.57;88.83
80798;BME280;70202;52.238;10.680;2024-03-17T01:07:17;100950.28;;;5.68;89.06
80798;BME280;70202;52.238;10.680;2024-03-17T01:08:18;100857.06;;;5.16;88.94
80798;BME280;70202;52.238;10.680;2024-03-17T01:09:18;100856.19;;;5.13;88.90
80798;BME280;70202;52.238;10.680;2024-03-17T01:10:19;100866.97;;;5.16;89.06
80798;BME280;70202;52.238;10.680;2024-03-17T01:11:19;100938.69;;;5.57;88.92
80798;BME280;70202;52.238;10.680;2024-03-17T01:12:20;100763.94;;;4.57;88.77
80798;BME280;70202;52.238;10.680;2024-03-17T01:13:20;100875.97;;;5.16;88.82
80798;BME280;70202;52.238;10.680;2024-03-17T01:14:21;100931.53;;;5.46;88.95
80798;BME280;70202;52.238;10.680;2024-03-17T01:15:21;100950.34;;;5.62;89.09
80798;BME280;70202;52.238;10.680;2024-03-17T01:16:21;100944.97;;;5.57;89.11
80798;BME280;70202;52.238;10.680;2024-03-17T01:17:23;100912.72;;;5.37;88.90
80798;BME280;70202;52.238;10.680;2024-03-17T01:18:24;100878.72;;;5.09;89.47
80798;BME280;70202;52.238;10.680;2024-03-17T01:19:24;100885.88;;;5.14;89.12
80798;BME280;70202;52.238;10.680;2024-03-17T01:20:26;100960.22;;;5.64;89.42
80798;BME280;70202;52.238;10.680;2024-03-17T01:21:26;100870.66;;;5.04;89.29
80798;BME280;70202;52.238;10.680;2024-03-17T01:22:27;100863.47;;;5.00;89.16
80798;BME280;70202;52.238;10.680;2024-03-17T01:23:27;100955.78;;;5.57;89.05
80798;BME280;70202;52.238;10.680;2024-03-17T01:24:28;100967.44;;;5.62;89.37
80798;BME280;70202;52.238;10.680;2024-03-17T01:25:33;100966.56;;;5.62;89.31
80798;BME280;70202;52.238;10.680;2024-03-17T01:26:36;100966.53;;;5.60;89.38
80798;BME280;70202;52.238;10.680;2024-03-17T01:27:36;100857.22;;;4.95;89.44
80798;BME280;70202;52.238;10.680;2024-03-17T01:28:37;100927.09;;;5.41;89.23
80798;BME280;70202;52.238;10.680;2024-03-17T01:29:37;100931.56;;;5.42;89.32
80798;BME280;70202;52.238;10.680;2024-03-17T01:30:38;100956.66;;;5.56;89.40
80798;BME280;70202;52.238;10.680;2024-03-17T01:31:40;100956.72;;;5.53;89.42
80798;BME280;70202;52.238;10.680;2024-03-17T01:32:40;100859.91;;;4.95;89.66
80798;BME280;70202;52.238;10.680;2024-03-17T01:33:40;100898.47;;;5.18;89.38
80798;BME280;70202;52.238;10.680;2024-03-17T01:34:41;100851.81;;;4.95;89.83
80798;BME280;70202;52.238;10.680;2024-03-17T01:35:41;100939.66;;;5.45;89.54
80798;BME280;70202;52.238;10.680;2024-03-17T01:36:42;100918.16;;;5.31;89.57
80798;BME280;70202;52.238;10.680;2024-03-17T01:37:42;100957.59;;;5.57;89.97
80798;BME280;70202;52.238;10.680;2024-03-17T01:38:43;100942.31;;;5.51;89.81
80798;BME280;70202;52.238;10.680;2024-03-17T01:39:43;100855.34;;;5.03;89.75
80798;BME280;70202;52.238;10.680;2024-03-17T01:40:44;100843.75;;;4.93;89.44
80798;BME280;70202;52.238;10.680;2024-03-17T01:41:44;100911.84;;;5.32;89.78
80798;BME280;70202;52.238;10.680;2024-03-17T01:42:44;100955.78;;;5.57;89.70
80798;BME280;70202;52.238;10.680;2024-03-17T01:43:45;100884.97;;;5.14;89.75
80798;BME280;70202;52.238;10.680;2024-03-17T01:44:45;100929.81;;;5.38;89.57
80798;BME280;70202;52.238;10.680;2024-03-17T01:45:46;100925.34;;;5.32;89.52
80798;BME280;70202;52.238;10.680;2024-03-17T01:46:47;100935.22;;;5.36;89.48
80798;BME280;70202;52.238;10.680;2024-03-17T01:47:47;100962.13;;;5.53;89.70
80798;BME280;70202;52.238;10.680;2024-03-17T01:48:48;100944.22;;;5.40;89.73
80798;BME280;70202;52.238;10.680;2024-03-17T01:49:49;100940.59;;;5.39;89.63
80798;BME280;70202;52.238;10.680;2024-03-17T01:50:52;100964.91;;;5.44;89.65
80798;BME280;70202;52.238;10.680;2024-03-17T01:51:53;100914.63;;;5.21;89.78
80798;BME280;70202;52.238;10.680;2024-03-17T01:52:56;100924.47;;;5.29;89.03
80798;BME280;70202;52.238;10.680;2024-03-17T01:53:59;100961.25;;;5.46;89.76
80798;BME280;70202;52.238;10.680;2024-03-17T01:55:02;100971.16;;;5.46;89.75
80798;BME280;70202;52.238;10.680;2024-03-17T01:56:03;100896.75;;;5.04;89.88
80798;BME280;70202;52.238;10.680;2024-03-17T01:57:04;100953.22;;;5.40;89.87
80798;BME280;70202;52.238;10.680;2024-03-17T01:58:05;100862.72;;;4.81;90.16
80798;BME280;70202;52.238;10.680;2024-03-17T01:59:09;100955.94;;;5.37;89.94
80798;BME280;70202;52.238;10.680;2024-03-17T02:00:10;100842.97;;;4.71;89.45
80798;BME280;70202;52.238;10.680;2024-03-17T02:01:12;100867.19;;;4.84;89.86
80798;BME280;70202;52.238;10.680;2024-03-17T02:02:15;100920.97;;;5.19;90.00
80798;BME280;70202;52.238;10.680;2024-03-17T02:03:16;100908.41;;;5.12;90.05
80798;BME280;70202;52.238;10.680;2024-03-17T02:04:16;100952.31;;;5.40;90.17
80798;BME280;70202;52.238;10.680;2024-03-17T02:05:18;100840.25;;;4.71;89.97
80798;BME280;70202;52.238;10.680;2024-03-17T02:06:18;100805.34;;;4.51;90.29
80798;BME280;70202;52.238;10.680;2024-03-17T02:07:18;100739.03;;;4.15;90.51
80798;BME280;70202;52.238;10.680;2024-03-17T02:08:19;100796.44;;;4.39;89.99
80798;BME280;70202;52.238;10.680;2024-03-17T02:09:20;100956.81;;;5.38;90.11
80798;BME280;70202;52.238;10.680;2024-03-17T02:10:22;100896.78;;;5.02;90.46
80798;BME280;70202;52.238;10.680;2024-03-17T02:11:31;100928.13;;;5.23;90.05
80798;BME280;70202;52.238;10.680;2024-03-17T02:12:32;100869.00;;;4.79;90.09
80798;BME280;70202;52.238;10.680;2024-03-17T02:13:33;100955.03;;;5.37;90.17
80798;BME280;70202;52.238;10.680;2024-03-17T02:14:34;100923.69;;;5.10;89.96
80798;BME280;70202;52.238;10.680;2024-03-17T02:15:34;100956.84;;;5.33;90.19
80798;BME280;70202;52.238;10.680;2024-03-17T02:16:34;100955.03;;;5.34;90.38
80798;BME280;70202;52.238;10.680;2024-03-17T02:17:35;100774.94;;;4.23;90.39
80798;BME280;70202;52.238;10.680;2024-03-17T02:18:35;100875.31;;;4.78;90.32
80798;BME280;70202;52.238;10.680;2024-03-17T02:19:36;100917.44;;;5.05;90.15
80798;BME280;70202;52.238;10.680;2024-03-17T02:20:36;100963.16;;;5.32;90.37
80798;BME280;70202;52.238;10.680;2024-03-17T02:21:55;100768.72;;;4.06;90.33
80798;BME280;70202;52.238;10.680;2024-03-17T02:22:56;100769.56;;;4.16;90.13
80798;BME280;70202;52.238;10.680;2024-03-17T02:23:56;100956.88;;;5.29;90.15
80798;BME280;70202;52.238;10.680;2024-03-17T02:24:57;100921.97;;;5.03;90.52
80798;BME280;70202;52.238;10.680;2024-03-17T02:25:57;100949.72;;;5.23;90.10
80798;BME280;70202;52.238;10.680;2024-03-17T02:26:57;100952.38;;;5.26;90.62
80798;BME280;70202;52.238;10.680;2024-03-17T02:27:58;100955.97;;;5.30;90.57
80798;BME280;70202;52.238;10.680;2024-03-17T02:28:59;100941.63;;;5.21;90.24
80798;BME280;70202;52.238;10.680;2024-03-17T02:29:59;100872.66;;;4.76;90.04
80798;BME280;70202;52.238;10.680;2024-03-17T02:30:59;100881.66;;;4.73;89.96
80798;BME280;70202;52.238;10.680;2024-03-17T02:32:00;100950.59;;;5.25;90.13
80798;BME280;70202;52.238;10.680;2024-03-17T02:33:04;100798.25;;;4.32;90.51
80798;BME280;70202;52.238;10.680;2024-03-17T02:34:04;100832.31;;;4.55;90.37
80798;BME280;70202;52.238;10.680;2024-03-17T02:35:05;100834.97;;;4.61;90.22
80798;BME280;70202;52.238;10.680;2024-03-17T02:36:06;100858.28;;;4.69;90.58
80798;BME280;70202;52.238;10.680;2024-03-17T02:37:10;100881.66;;;4.72;90.49
80798;BME280;70202;52.238;10.680;2024-03-17T02:38:15;100837.69;;;4.56;90.32
80798;BME280;70202;52.238;10.680;2024-03-17T02:39:36;100948.84;;;5.18;90.55
80798;BME280;70202;52.238;10.680;2024-03-17T02:40:36;100946.22;;;5.04;90.11
80798;BME280;70202;52.238;10.680;2024-03-17T02:41:37;100878.97;;;4.66;90.31
80798;BME280;70202;52.238;10.680;2024-03-17T02:42:37;100965.06;;;5.13;90.83
80798;BME280;70202;52.238;10.680;2024-03-17T02:43:42;100925.59;;;4.95;90.47
80798;BME280;70202;52.238;10.680;2024-03-17T02:44:42;100876.31;;;4.61;90.01
80798;BME280;70202;52.238;10.680;2024-03-17T02:45:43;100958.84;;;5.02;90.43
80798;BME280;70202;52.238;10.680;2024-03-17T02:46:43;100941.75;;;5.00;90.12
80798;BME280;70202;52.238;10.680;2024-03-17T02:47:44;100753.56;;;3.84;90.07
80798;BME280;70202;52.238;10.680;2024-03-17T02:48:49;100957.03;;;5.07;90.53
80798;BME280;70202;52.238;10.680;2024-03-17T02:49:50;100944.50;;;4.94;90.54
80798;BME280;70202;52.238;10.680;2024-03-17T02:50:50;100966.06;;;5.01;90.19
80798;BME280;70202;52.238;10.680;2024-03-17T02:51:51;100952.59;;;4.94;90.16
80798;BME280;70202;52.238;10.680;2024-03-17T02:52:51;100941.88;;;4.80;90.54
80798;BME280;70202;52.238;10.680;2024-03-17T02:53:51;100951.69;;;4.98;90.41
80798;BME280;70202;52.238;10.680;2024-03-17T02:54:52;100931.97;;;4.82;90.32
80798;BME280;70202;52.238;10.680;2024-03-17T02:55:53;100911.38;;;4.58;90.23
80798;BME280;70202;52.238;10.680;2024-03-17T02:56:53;100930.22;;;4.76;90.19
80798;BME280;70202;52.238;10.680;2024-03-17T02:57:54;100952.59;;;4.94;90.39
80798;BME280;70202;52.238;10.680;2024-03-17T02:58:54;100944.53;;;4.89;90.36
80798;BME280;70202;52.238;10.680;2024-03-17T02:59:55;100862.06;;;4.38;90.42
80798;BME280;70202;52.238;10.680;2024-03-17T03:00:56;100865.63;;;4.43;90.25
80798;BME280;70202;52.238;10.680;2024-03-17T03:01:58;100970.56;;;5.03;90.57
80798;BME280;70202;52.238;10.680;2024-03-17T03:02:58;100894.34;;;4.55;90.41
80798;BME280;70202;52.238;10.680;2024-03-17T03:03:59;100860.22;;;4.41;90.56
80798;BME280;70202;52.238;10.680;2024-03-17T03:04:59;100931.94;;;4.90;90.58
80798;BME280;70202;52.238;10.680;2024-03-17T03:05:59;100966.91;;;5.11;91.10
80798;BME280;70202;52.238;10.680;2024-03-17T03:07:04;100959.69;;;5.15;91.01
80798;BME280;70202;52.238;10.680;2024-03-17T03:08:05;100871.81;;;4.59;90.94
80798;BME280;70202;52.238;10.680;2024-03-17T03:09:05;100929.16;;;5.00;90.74
80798;BME280;70202;52.238;10.680;2024-03-17T03:10:12;100938.16;;;5.06;90.70
80798;BME280;70202;52.238;10.680;2024-03-17T03:11:13;100961.44;;;5.20;91.02
80798;BME280;70202;52.238;10.680;2024-03-17T03:12:13;100934.50;;;5.14;90.54
80798;BME280;70202;52.238;10.680;2024-03-17T03:13:13;100876.22;;;4.78;90.42
80798;BME280;70202;52.238;10.680;2024-03-17T03:14:14;100958.63;;;5.34;90.69
80798;BME280;70202;52.238;10.680;2024-03-17T03:15:14;100859.13;;;4.78;90.59
80798;BME280;70202;52.238;10.680;2024-03-17T03:16:15;100969.41;;;5.40;90.88
80798;BME280;70202;52.238;10.680;2024-03-17T03:17:15;100934.38;;;5.28;91.00
80798;BME280;70202;52.238;10.680;2024-03-17T03:18:16;100924.53;;;5.18;90.99
80798;BME280;70202;52.238;10.680;2024-03-17T03:19:16;100956.81;;;5.38;90.97
80798;BME280;70202;52.238;10.680;2024-03-17T03:20:17;100938.88;;;5.29;90.77
80798;BME280;70202;52.238;10.680;2024-03-17T03:21:18;100876.16;;;4.89;90.52
80798;BME280;70202;52.238;10.680;2024-03-17T03:22:18;100960.34;;;5.47;90.92
80798;BME280;70202;52.238;10.680;2024-03-17T03:23:21;100832.16;;;4.74;90.50
80798;BME280;70202;52.238;10.680;2024-03-17T03:24:22;100936.16;;;5.35;90.90
80798;BME280;70202;52.238;10.680;2024-03-17T03:25:22;100963.06;;;5.46;91.13
80798;BME280;70202;52.238;10.680;2024-03-17T03:26:23;100875.25;;;4.90;90.74
80798;BME280;70202;52.238;10.680;2024-03-17T03:27:23;100902.09;;;5.11;90.60
80798;BME280;70202;52.238;10.680;2024-03-17T03:28:25;100951.41;;;5.38;90.83
80798;BME280;70202;52.238;10.680;2024-03-17T03:29:26;100919.13;;;5.18;90.65
80798;BME280;70202;52.238;10.680;2024-03-17T03:30:27;100833.13;;;4.66;90.87
80798;BME280;70202;52.238;10.680;2024-03-17T03:31:27;100960.44;;;5.37;91.12
80798;BME280;70202;52.238;10.680;2024-03-17T03:32:28;100947.00;;;5.28;90.92
80798;BME280;70202;52.238;10.680;2024-03-17T03:33:28;100860.03;;;4.76;90.60
80798;BME280;70202;52.238;10.680;2024-03-17T03:34:29;100876.19;;;4.80;90.83
80798;BME280;70202;52.238;10.680;2024-03-17T03:35:29;100860.09;;;4.67;91.02
80798;BME280;70202;52.238;10.680;2024-03-17T03:36:30;100860.06;;;4.70;90.84
80798;BME280;70202;52.238;10.680;2024-03-17T03:37:31;100847.56;;;4.54;91.11
80798;BME280;70202;52.238;10.680;2024-03-17T03:38:32;100943.47;;;5.15;90.68
80798;BME280;70202;52.238;10.680;2024-03-17T03:39:33;100920.16;;;5.00;90.42
80798;BME280;70202;52.238;10.680;2024-03-17T03:40:34;100968.66;;;5.17;91.23
80798;BME280;70202;52.238;10.680;2024-03-17T03:41:34;100935.47;;;5.03;90.71
80798;BME280;70202;52.238;10.680;2024-03-17T03:42:35;100858.38;;;4.49;91.08
80798;BME280;70202;52.238;10.680;2024-03-17T03:43:36;100859.25;;;4.56;90.54
80798;BME280;70202;52.238;10.680;2024-03-17T03:44:36;100747.25;;;3.86;90.67
80798;BME280;70202;52.238;10.680;2024-03-17T03:45:37;100946.25;;;5.01;90.81
80798;BME280;70202;52.238;10.680;2024-03-17T03:46:37;100831.47;;;4.37;90.60
80798;BME280;70202;52.238;10.680;2024-03-17T03:47:42;100953.47;;;5.02;90.58
80798;BME280;70202;52.238;10.680;2024-03-17T03:48:42;100928.34;;;4.83;90.69
80798;BME280;70202;52.238;10.680;2024-03-17T03:49:43;100921.19;;;4.78;91.05
80798;BME280;70202;52.238;10.680;2024-03-17T03:50:45;100939.13;;;4.89;91.10
80798;BME280;70202;52.238;10.680;2024-03-17T03:51:46;100936.47;;;4.85;90.57
80798;BME280;70202;52.238;10.680;2024-03-17T03:52:46;100849.53;;;4.29;91.10
80798;BME280;70202;52.238;10.680;2024-03-17T03:53:46;100923.94;;;4.73;90.84
80798;BME280;70202;52.238;10.680;2024-03-17T03:54:47;100938.28;;;4.78;90.64
80798;BME280;70202;52.238;10.680;2024-03-17T03:55:47;100871.94;;;4.37;91.01
80798;BME280;70202;52.238;10.680;2024-03-17T03:56:49;100780.53;;;3.81;90.37
80798;BME280;70202;52.238;10.680;2024-03-17T03:57:49;100921.25;;;4.67;90.62
80798;BME280;70202;52.238;10.680;2024-03-17T03:58:52;100840.56;;;4.19;90.83
80798;BME280;70202;52.238;10.680;2024-03-17T03:59:52;100953.56;;;4.82;91.04
80798;BME280;70202;52.238;10.680;2024-03-17T04:00:53;100964.34;;;4.84;90.55
80798;BME280;70202;52.238;10.680;2024-03-17T04:01:53;100913.22;;;4.55;91.09
80798;BME280;70202;52.238;10.680;2024-03-17T04:02:54;100873.75;;;4.32;90.93
80798;BME280;70202;52.238;10.680;2024-03-17T04:03:54;100915.91;;;4.59;90.98
80798;BME280;70202;52.238;10.680;2024-03-17T04:04:55;100845.06;;;4.14;91.16
80798;BME280;70202;52.238;10.680;2024-03-17T04:06:05;100952.69;;;4.77;90.92
80798;BME280;70202;52.238;10.680;2024-03-17T04:07:06;100840.56;;;4.12;90.37
80798;BME280;70202;52.238;10.680;2024-03-17T04:08:08;100817.28;;;3.97;91.18
80798;BME280;70202;52.238;10.680;2024-03-17T04:09:09;100867.56;;;4.09;91.24
80798;BME280;70202;52.238;10.680;2024-03-17T04:10:09;100955.41;;;4.72;90.96
80798;BME280;70202;52.238;10.680;2024-03-17T04:11:10;100914.13;;;4.49;91.15
80798;BME280;70202;52.238;10.680;2024-03-17T04:12:11;100949.13;;;4.69;91.39
80798;BME280;70202;52.238;10.680;2024-03-17T04:13:12;100899.78;;;4.42;91.09
80798;BME280;70202;52.238;10.680;2024-03-17T04:14:14;100949.13;;;4.69;91.28
80798;BME280;70202;52.238;10.680;2024-03-17T04:15:14;100885.47;;;4.26;91.21
80798;BME280;70202;52.238;10.680;2024-03-17T04:16:15;100906.06;;;4.44;91.43
80798;BME280;70202;52.238;10.680;2024-03-17T04:17:15;100956.31;;;4.70;91.48
80798;BME280;70202;52.238;10.680;2024-03-17T04:18:16;100942.84;;;4.62;91.36
80798;BME280;70202;52.238;10.680;2024-03-17T04:19:17;100913.25;;;4.47;91.12
80798;BME280;70202;52.238;10.680;2024-03-17T04:20:18;100938.38;;;4.58;91.61
80798;BME280;70202;52.238;10.680;2024-03-17T04:21:18;100916.84;;;4.44;91.37
80798;BME280;70202;52.238;10.680;2024-03-17T04:22:20;100958.13;;;4.68;90.90
80798;BME280;70202;52.238;10.680;2024-03-17T04:23:22;100957.22;;;4.66;90.80
80798;BME280;70202;52.238;10.680;2024-03-17T04:24:23;100889.09;;;4.18;90.88
80798;BME280;70202;52.238;10.680;2024-03-17T04:25:24;100958.13;;;4.65;90.71
80798;BME280;70202;52.238;10.680;2024-03-17T04:26:24;100849.59;;;4.06;90.70
80798;BME280;70202;52.238;10.680;2024-03-17T04:27:25;100961.75;;;4.64;91.13
80798;BME280;70202;52.238;10.680;2024-03-17T04:28:26;100867.56;;;4.06;90.99
80798;BME280;70202;52.238;10.680;2024-03-17T04:29:26;100910.59;;;4.35;90.84
80798;BME280;70202;52.238;10.680;2024-03-17T04:30:27;100872.03;;;4.11;91.10
80798;BME280;70202;52.238;10.680;2024-03-17T04:31:27;100878.38;;;4.04;90.93
80798;BME280;70202;52.238;10.680;2024-03-17T04:32:28;100877.41;;;4.14;91.21
80798;BME280;70202;52.238;10.680;2024-03-17T04:33:28;100957.25;;;4.61;90.85
80798;BME280;70202;52.238;10.680;2024-03-17T04:34:28;100863.97;;;4.05;91.16
80798;BME280;70202;52.238;10.680;2024-03-17T04:35:29;100855.03;;;4.00;90.85
80798;BME280;70202;52.238;10.680;2024-03-17T04:36:29;100910.56;;;4.47;91.31
80798;BME280;70202;52.238;10.680;2024-03-17T04:37:29;100924.91;;;4.57;91.74
80798;BME280;70202;52.238;10.680;2024-03-17T04:38:30;100824.47;;;4.01;91.29
80798;BME280;70202;52.238;10.680;2024-03-17T04:39:31;100863.00;;;4.23;91.70
80798;BME280;70202;52.238;10.680;2024-03-17T04:40:35;100856.72;;;4.19;91.61
80798;BME280;70202;52.238;10.680;2024-03-17T04:41:39;100874.69;;;4.30;91.65
80798;BME280;70202;52.238;10.680;2024-03-17T04:42:41;100941.88;;;4.75;91.38
80798;BME280;70202;52.238;10.680;2024-03-17T04:43:41;100932.91;;;4.70;91.68
80798;BME280;70202;52.238;10.680;2024-03-17T04:44:42;100973.31;;;4.93;91.56
80798;BME280;70202;52.238;10.680;2024-03-17T04:45:43;100953.56;;;4.79;91.70
80798;BME280;70202;52.238;10.680;2024-03-17T04:46:44;100925.72;;;4.74;91.50
80798;BME280;70202;52.238;10.680;2024-03-17T04:47:45;100900.63;;;4.52;91.28
80798;BME280;70202;52.238;10.680;2024-03-17T04:48:47;100933.75;;;4.85;91.45
80798;BME280;70202;52.238;10.680;2024-03-17T04:49:47;100883.56;;;4.45;91.41
80798;BME280;70202;52.238;10.680;2024-03-17T04:50:48;100874.59;;;4.46;91.46
80798;BME280;70202;52.238;10.680;2024-03-17T04:51:49;100853.06;;;4.39;91.65
80798;BME280;70202;52.238;10.680;2024-03-17T04:52:50;100877.25;;;4.54;91.42
80798;BME280;70202;52.238;10.680;2024-03-17T04:53:50;100868.25;;;4.57;91.45
80798;BME280;70202;52.238;10.680;2024-03-17T04:54:51;100921.13;;;4.91;91.80
80798;BME280;70202;52.238;10.680;2024-03-17T04:56:04;100964.19;;;5.14;91.76
80798;BME280;70202;52.238;10.680;2024-03-17T04:57:05;100971.38;;;5.12;91.65
80798;BME280;70202;52.238;10.680;2024-03-17T04:58:05;100965.97;;;5.18;91.53
80798;BME280;70202;52.238;10.680;2024-03-17T04:59:05;100872.72;;;4.61;91.65
80798;BME280;70202;52.238;10.680;2024-03-17T05:00:06;100894.22;;;4.81;91.38
80798;BME280;70202;52.238;10.680;2024-03-17T05:01:07;100830.56;;;4.41;91.48
80798;BME280;70202;52.238;10.680;2024-03-17T05:02:08;100983.00;;;5.26;92.10
80798;BME280;70202;52.238;10.680;2024-03-17T05:03:08;100958.72;;;5.23;91.81
80798;BME280;70202;52.238;10.680;2024-03-17T05:04:09;100952.44;;;5.20;91.81
80798;BME280;70202;52.238;10.680;2024-03-17T05:05:09;100781.22;;;4.22;92.20
80798;BME280;70202;52.238;10.680;2024-03-17T05:06:10;100916.63;;;4.90;91.97
80798;BME280;70202;52.238;10.680;2024-03-17T05:07:11;100846.59;;;4.66;91.53
80798;BME280;70202;52.238;10.680;2024-03-17T05:08:11;100877.13;;;4.75;91.76
80798;BME280;70202;52.238;10.680;2024-03-17T05:09:18;100883.38;;;4.84;91.80
80798;BME280;70202;52.238;10.680;2024-03-17T05:10:19;100938.03;;;5.21;91.70
80798;BME280;70202;52.238;10.680;2024-03-17T05:11:20;100964.94;;;5.36;91.75
80798;BME280;70202;52.238;10.680;2024-03-17T05:12:20;100952.34;;;5.31;92.31
80798;BME280;70202;52.238;10.680;2024-03-17T05:13:20;100791.94;;;4.39;91.66
80798;BME280;70202;52.238;10.680;2024-03-17T05:14:21;100977.47;;;5.48;91.88
80798;BME280;70202;52.238;10.680;2024-03-17T05:15:21;100894.97;;;4.99;92.08
80798;BME280;70202;52.238;10.680;2024-03-17T05:16:22;100822.38;;;4.60;91.95
80798;BME280;70202;52.238;10.680;2024-03-17T05:17:23;100954.97;;;5.43;92.10
80798;BME280;70202;52.238;10.680;2024-03-17T05:18:23;100867.09;;;4.96;92.01
80798;BME280;70202;52.238;10.680;2024-03-17T05:19:26;100914.63;;;5.20;92.04